sensor_id;sensor_type;location;lat;lon;timestamp;pressure;altitude;pressure_sealevel;temperature;humidity
9225;BME280;4647;48.072;11.616;2023-06-10T00:00:56;94873.97;;;15.38;70.02
9225;BME280;4647;48.072;11.616;2023-06-10T00:03:25;94878.97;;;15.40;69.78
9225;BME280;4647;48.072;11.616;2023-06-10T00:05:53;94875.75;;;15.32;69.60
9225;BME280;4647;48.072;11.616;2023-06-10T00:08:24;94845.56;;;14.86;70.52
9225;BME280;4647;48.072;11.616;2023-06-10T00:10:56;94878.81;;;14.94;71.01
9225;BME280;4647;48.072;11.616;2023-06-10T00:13:25;94868.53;;;15.07;70.42
9225;BME280;4647;48.072;11.616;2023-06-10T00:15:54;94876.88;;;15.03;70.60
9225;BME280;4647;48.072;11.616;2023-06-10T00:18:22;94867.00;;;14.97;71.47
9225;BME280;4647;48.072;11.616;2023-06-10T00:20:52;94873.81;;;15.01;71.44
9225;BME280;4647;48.072;11.616;2023-06-10T00:23:25;94881.25;;;15.01;71.08
9225;BME280;4647;48.072;11.616;2023-06-10T00:25:56;94858.56;;;14.82;71.35
9225;BME280;4647;48.072;11.616;2023-06-10T00:28:24;94881.25;;;15.01;70.96
9225;BME280;4647;48.072;11.616;2023-06-10T00:30:53;94876.31;;;14.87;71.99
9225;BME280;4647;48.072;11.616;2023-06-10T00:33:22;94880.41;;;14.82;72.17
9225;BME280;4647;48.072;11.616;2023-06-10T00:35:51;94871.31;;;14.85;71.58
9225;BME280;4647;48.072;11.616;2023-06-10T00:38:20;94876.63;;;14.89;71.97
9225;BME280;4647;48.072;11.616;2023-06-10T00:40:51;94877.59;;;14.95;71.54
9225;BME280;4647;48.072;11.616;2023-06-10T00:43:19;94881.91;;;14.83;71.94
9225;BME280;4647;48.072;11.616;2023-06-10T00:45:48;94880.72;;;14.84;71.89
9225;BME280;4647;48.072;11.616;2023-06-10T00:48:17;94882.50;;;14.78;72.06
9225;BME280;4647;48.072;11.616;2023-06-10T00:50:46;94885.94;;;14.69;72.66
9225;BME280;4647;48.072;11.616;2023-06-10T00:53:14;94890.69;;;14.56;73.08
9225;BME280;4647;48.072;11.616;2023-06-10T00:55:43;94882.34;;;14.51;73.26
9225;BME280;4647;48.072;11.616;2023-06-10T00:58:14;94875.50;;;14.46;73.09
9225;BME280;4647;48.072;11.616;2023-06-10T01:00:43;94863.28;;;14.38;73.18
9225;BME280;4647;48.072;11.616;2023-06-10T01:03:12;94878.84;;;14.50;72.99
9225;BME280;4647;48.072;11.616;2023-06-10T01:05:43;94891.59;;;14.53;73.12
9225;BME280;4647;48.072;11.616;2023-06-10T01:08:21;94882.84;;;14.58;73.05
9225;BME280;4647;48.072;11.616;2023-06-10T01:10:59;94886.00;;;14.57;73.01
9225;BME280;4647;48.072;11.616;2023-06-10T01:13:31;94867.97;;;14.37;73.66
9225;BME280;4647;48.072;11.616;2023-06-10T01:16:00;94882.47;;;14.47;73.48
9225;BME280;4647;48.072;11.616;2023-06-10T01:18:30;94884.53;;;14.43;73.58
9225;BME280;4647;48.072;11.616;2023-06-10T01:20:58;94888.06;;;14.43;73.62
9225;BME280;4647;48.072;11.616;2023-06-10T01:23:30;94864.88;;;14.26;73.68
9225;BME280;4647;48.072;11.616;2023-06-10T01:26:02;94889.91;;;14.34;74.45
9225;BME280;4647;48.072;11.616;2023-06-10T01:28:35;94889.13;;;14.46;73.90
9225;BME280;4647;48.072;11.616;2023-06-10T01:31:09;94880.41;;;14.38;73.70
9225;BME280;4647;48.072;11.616;2023-06-10T01:33:43;94885.38;;;14.18;74.32
9225;BME280;4647;48.072;11.616;2023-06-10T01:36:12;94889.56;;;14.10;74.68
9225;BME280;4647;48.072;11.616;2023-06-10T01:38:45;94891.50;;;14.22;75.07
9225;BME280;4647;48.072;11.616;2023-06-10T01:41:17;94883.56;;;14.37;74.36
9225;BME280;4647;48.072;11.616;2023-06-10T01:43:47;94893.72;;;14.36;73.91
9225;BME280;4647;48.072;11.616;2023-06-10T01:46:16;94880.78;;;14.28;73.79
9225;BME280;4647;48.072;11.616;2023-06-10T01:48:46;94879.69;;;14.03;75.02
9225;BME280;4647;48.072;11.616;2023-06-10T01:51:15;94884.38;;;14.03;75.75
9225;BME280;4647;48.072;11.616;2023-06-10T01:53:46;94881.88;;;13.96;76.13
9225;BME280;4647;48.072;11.616;2023-06-10T01:56:15;94883.38;;;14.09;76.06
9225;BME280;4647;48.072;11.616;2023-06-10T01:58:45;94892.16;;;14.13;75.76
9225;BME280;4647;48.072;11.616;2023-06-10T02:01:14;94871.41;;;13.94;75.83
9225;BME280;4647;48.072;11.616;2023-06-10T02:03:42;94894.38;;;14.06;76.10
9225;BME280;4647;48.072;11.616;2023-06-10T02:06:11;94875.66;;;13.95;76.41
9225;BME280;4647;48.072;11.616;2023-06-10T02:08:39;94882.22;;;13.98;76.45
9225;BME280;4647;48.072;11.616;2023-06-10T02:11:10;94888.81;;;14.09;76.27
9225;BME280;4647;48.072;11.616;2023-06-10T02:13:39;94896.34;;;14.05;75.97
9225;BME280;4647;48.072;11.616;2023-06-10T02:16:07;94895.28;;;14.03;75.88
9225;BME280;4647;48.072;11.616;2023-06-10T02:18:38;94890.72;;;14.00;76.02
9225;BME280;4647;48.072;11.616;2023-06-10T02:21:08;94879.94;;;13.96;76.26
9225;BME280;4647;48.072;11.616;2023-06-10T02:23:37;94892.09;;;14.04;76.24
9225;BME280;4647;48.072;11.616;2023-06-10T02:26:05;94884.25;;;14.06;75.84
9225;BME280;4647;48.072;11.616;2023-06-10T02:28:36;94885.38;;;13.96;76.06
9225;BME280;4647;48.072;11.616;2023-06-10T02:31:05;94887.06;;;13.81;76.21
9225;BME280;4647;48.072;11.616;2023-06-10T02:33:33;94882.72;;;13.71;76.59
9225;BME280;4647;48.072;11.616;2023-06-10T02:36:05;94888.06;;;13.62;77.18
9225;BME280;4647;48.072;11.616;2023-06-10T02:38:34;94886.41;;;13.77;77.00
9225;BME280;4647;48.072;11.616;2023-06-10T02:41:02;94893.94;;;13.73;76.98
9225;BME280;4647;48.072;11.616;2023-06-10T02:43:31;94889.59;;;13.63;76.70
9225;BME280;4647;48.072;11.616;2023-06-10T02:46:02;94892.44;;;13.46;77.43
9225;BME280;4647;48.072;11.616;2023-06-10T02:48:30;94890.81;;;13.36;77.69
9225;BME280;4647;48.072;11.616;2023-06-10T02:50:59;94885.78;;;13.47;77.78
9225;BME280;4647;48.072;11.616;2023-06-10T02:53:27;94895.69;;;13.67;76.88
9225;BME280;4647;48.072;11.616;2023-06-10T02:55:56;94884.72;;;13.45;76.44
9225;BME280;4647;48.072;11.616;2023-06-10T02:58:24;94850.66;;;13.15;76.25
9225;BME280;4647;48.072;11.616;2023-06-10T03:00:53;94882.66;;;13.36;76.61
9225;BME280;4647;48.072;11.616;2023-06-10T03:03:24;94873.09;;;13.19;76.67
9225;BME280;4647;48.072;11.616;2023-06-10T03:05:53;94873.94;;;13.16;76.46
9225;BME280;4647;48.072;11.616;2023-06-10T03:08:22;94892.34;;;13.12;77.58
9225;BME280;4647;48.072;11.616;2023-06-10T03:10:50;94876.34;;;13.01;77.22
9225;BME280;4647;48.072;11.616;2023-06-10T03:13:18;94889.84;;;13.05;77.11
9225;BME280;4647;48.072;11.616;2023-06-10T03:15:47;94879.94;;;12.85;77.55
9225;BME280;4647;48.072;11.616;2023-06-10T03:18:15;94891.53;;;12.73;77.50
9225;BME280;4647;48.072;11.616;2023-06-10T03:20:46;94905.22;;;12.70;78.47
9225;BME280;4647;48.072;11.616;2023-06-10T03:23:17;94904.03;;;12.71;78.04
9225;BME280;4647;48.072;11.616;2023-06-10T03:25:46;94905.44;;;12.75;77.83
9225;BME280;4647;48.072;11.616;2023-06-10T03:28:15;94901.97;;;12.75;78.15
9225;BME280;4647;48.072;11.616;2023-06-10T03:30:43;94909.41;;;12.87;77.60
9225;BME280;4647;48.072;11.616;2023-06-10T03:33:12;94901.34;;;12.83;76.50
9225;BME280;4647;48.072;11.616;2023-06-10T03:35:46;94916.72;;;13.03;76.70
9225;BME280;4647;48.072;11.616;2023-06-10T03:38:15;94922.34;;;12.96;76.47
9225;BME280;4647;48.072;11.616;2023-06-10T03:40:43;94927.16;;;13.04;76.99
9225;BME280;4647;48.072;11.616;2023-06-10T03:43:12;94919.34;;;13.19;76.51
9225;BME280;4647;48.072;11.616;2023-06-10T03:45:40;94921.16;;;13.09;76.66
9225;BME280;4647;48.072;11.616;2023-06-10T03:48:09;94923.03;;;13.38;77.02
9225;BME280;4647;48.072;11.616;2023-06-10T03:50:37;94923.75;;;14.24;73.47
9225;BME280;4647;48.072;11.616;2023-06-10T03:53:09;94916.75;;;15.10;69.65
9225;BME280;4647;48.072;11.616;2023-06-10T03:55:37;94920.84;;;15.86;66.56
9225;BME280;4647;48.072;11.616;2023-06-10T03:58:06;94927.25;;;16.65;63.73
9225;BME280;4647;48.072;11.616;2023-06-10T04:00:35;94930.88;;;17.08;62.04
9225;BME280;4647;48.072;11.616;2023-06-10T04:03:06;94933.78;;;17.46;60.53
9225;BME280;4647;48.072;11.616;2023-06-10T04:05:39;94940.53;;;17.78;59.74
9225;BME280;4647;48.072;11.616;2023-06-10T04:08:10;94938.25;;;18.01;58.22
9225;BME280;4647;48.072;11.616;2023-06-10T04:10:39;94921.81;;;18.39;56.75
9225;BME280;4647;48.072;11.616;2023-06-10T04:13:07;94945.09;;;18.68;55.86
9225;BME280;4647;48.072;11.616;2023-06-10T04:15:36;94941.91;;;18.84;55.01
9225;BME280;4647;48.072;11.616;2023-06-10T04:18:04;94945.72;;;19.01;54.03
9225;BME280;4647;48.072;11.616;2023-06-10T04:20:33;94954.91;;;19.13;54.33
9225;BME280;4647;48.072;11.616;2023-06-10T04:23:02;94938.53;;;19.19;54.09
9225;BME280;4647;48.072;11.616;2023-06-10T04:25:33;94929.22;;;19.31;53.22
9225;BME280;4647;48.072;11.616;2023-06-10T04:28:02;94955.56;;;19.67;52.67
9225;BME280;4647;48.072;11.616;2023-06-10T04:30:30;94957.97;;;19.80;52.73
9225;BME280;4647;48.072;11.616;2023-06-10T04:32:59;94957.91;;;20.09;52.00
9225;BME280;4647;48.072;11.616;2023-06-10T04:35:27;94948.91;;;20.29;51.44
9225;BME280;4647;48.072;11.616;2023-06-10T04:37:57;94959.53;;;20.57;50.88
9225;BME280;4647;48.072;11.616;2023-06-10T04:40:25;94957.13;;;20.64;50.50
9225;BME280;4647;48.072;11.616;2023-06-10T04:42:56;94968.47;;;20.72;50.41
9225;BME280;4647;48.072;11.616;2023-06-10T04:45:25;94961.13;;;20.63;51.10
9225;BME280;4647;48.072;11.616;2023-06-10T04:47:55;94968.88;;;20.85;51.44
9225;BME280;4647;48.072;11.616;2023-06-10T04:50:24;94971.63;;;21.31;50.61
9225;BME280;4647;48.072;11.616;2023-06-10T04:52:52;94978.97;;;21.20;50.83
9225;BME280;4647;48.072;11.616;2023-06-10T04:55:22;94976.16;;;20.88;51.35
9225;BME280;4647;48.072;11.616;2023-06-10T04:57:51;94970.41;;;21.12;50.16
9225;BME280;4647;48.072;11.616;2023-06-10T05:00:22;94972.56;;;21.28;50.24
9225;BME280;4647;48.072;11.616;2023-06-10T05:02:51;94976.47;;;21.42;50.16
9225;BME280;4647;48.072;11.616;2023-06-10T05:05:19;94964.06;;;21.58;49.17
9225;BME280;4647;48.072;11.616;2023-06-10T05:07:48;94970.25;;;21.79;49.95
9225;BME280;4647;48.072;11.616;2023-06-10T05:10:16;94937.16;;;21.21;49.62
9225;BME280;4647;48.072;11.616;2023-06-10T05:12:45;94974.28;;;21.52;49.87
9225;BME280;4647;48.072;11.616;2023-06-10T05:15:14;94971.31;;;21.55;49.76
9225;BME280;4647;48.072;11.616;2023-06-10T05:17:45;94971.91;;;21.13;51.38
9225;BME280;4647;48.072;11.616;2023-06-10T05:20:13;94974.97;;;21.21;52.16
9225;BME280;4647;48.072;11.616;2023-06-10T05:22:42;94977.00;;;22.09;49.67
9225;BME280;4647;48.072;11.616;2023-06-10T05:25:10;94974.28;;;21.83;50.34
9225;BME280;4647;48.072;11.616;2023-06-10T05:27:38;94981.41;;;21.64;51.17
9225;BME280;4647;48.072;11.616;2023-06-10T05:30:09;94985.47;;;21.74;51.33
9225;BME280;4647;48.072;11.616;2023-06-10T05:32:38;94972.47;;;22.06;50.37
9225;BME280;4647;48.072;11.616;2023-06-10T05:35:09;94972.09;;;22.30;50.17
9225;BME280;4647;48.072;11.616;2023-06-10T05:37:37;94980.00;;;22.54;50.12
9225;BME280;4647;48.072;11.616;2023-06-10T05:40:07;94978.66;;;22.98;49.36
9225;BME280;4647;48.072;11.616;2023-06-10T05:42:36;94984.66;;;22.85;49.63
9225;BME280;4647;48.072;11.616;2023-06-10T05:45:06;94971.59;;;22.91;49.54
9225;BME280;4647;48.072;11.616;2023-06-10T05:47:35;94972.75;;;22.67;50.05
9225;BME280;4647;48.072;11.616;2023-06-10T05:50:04;94975.59;;;22.30;52.14
9225;BME280;4647;48.072;11.616;2023-06-10T05:52:37;94962.31;;;22.94;50.09
9225;BME280;4647;48.072;11.616;2023-06-10T05:55:07;94974.44;;;23.24;49.21
9225;BME280;4647;48.072;11.616;2023-06-10T05:57:36;94968.91;;;23.30;49.09
9225;BME280;4647;48.072;11.616;2023-06-10T06:00:06;94970.88;;;23.07;49.66
9225;BME280;4647;48.072;11.616;2023-06-10T06:02:35;94968.56;;;22.89;50.09
9225;BME280;4647;48.072;11.616;2023-06-10T06:05:04;94970.75;;;22.14;52.36
9225;BME280;4647;48.072;11.616;2023-06-10T06:07:32;94977.78;;;22.15;52.43
9225;BME280;4647;48.072;11.616;2023-06-10T06:10:04;94982.81;;;21.85;53.71
9225;BME280;4647;48.072;11.616;2023-06-10T06:12:33;94970.47;;;21.43;54.16
9225;BME280;4647;48.072;11.616;2023-06-10T06:15:02;94985.69;;;20.67;57.37
9225;BME280;4647;48.072;11.616;2023-06-10T06:17:30;94986.44;;;20.47;57.79
9225;BME280;4647;48.072;11.616;2023-06-10T06:19:59;94980.66;;;20.65;56.61
9225;BME280;4647;48.072;11.616;2023-06-10T06:22:27;94970.97;;;20.49;56.65
9225;BME280;4647;48.072;11.616;2023-06-10T06:24:55;94985.13;;;20.63;57.34
9225;BME280;4647;48.072;11.616;2023-06-10T06:27:27;94985.63;;;20.61;57.28
9225;BME280;4647;48.072;11.616;2023-06-10T06:29:56;94976.78;;;20.37;58.66
9225;BME280;4647;48.072;11.616;2023-06-10T06:32:25;94987.94;;;20.48;58.43
9225;BME280;4647;48.072;11.616;2023-06-10T06:34:53;94982.13;;;20.61;58.18
9225;BME280;4647;48.072;11.616;2023-06-10T06:37:23;94988.38;;;20.61;58.08
9225;BME280;4647;48.072;11.616;2023-06-10T06:39:52;94981.91;;;20.44;59.10
9225;BME280;4647;48.072;11.616;2023-06-10T06:42:21;94976.66;;;20.87;57.79
9225;BME280;4647;48.072;11.616;2023-06-10T06:44:52;94986.22;;;20.91;57.52
9225;BME280;4647;48.072;11.616;2023-06-10T06:47:20;94990.44;;;21.12;56.54
9225;BME280;4647;48.072;11.616;2023-06-10T06:49:49;94993.78;;;21.22;56.67
9225;BME280;4647;48.072;11.616;2023-06-10T06:52:17;94989.16;;;21.34;56.33
9225;BME280;4647;48.072;11.616;2023-06-10T06:54:47;94961.16;;;20.89;56.78
9225;BME280;4647;48.072;11.616;2023-06-10T06:57:16;94994.84;;;21.04;57.24
9225;BME280;4647;48.072;11.616;2023-06-10T06:59:44;94989.56;;;20.80;57.97
9225;BME280;4647;48.072;11.616;2023-06-10T07:02:15;94997.84;;;20.80;57.69
9225;BME280;4647;48.072;11.616;2023-06-10T07:04:44;94993.56;;;20.79;57.88
9225;BME280;4647;48.072;11.616;2023-06-10T07:07:14;94996.25;;;21.40;55.68
9225;BME280;4647;48.072;11.616;2023-06-10T07:09:42;94956.44;;;20.69;56.81
9225;BME280;4647;48.072;11.616;2023-06-10T07:12:11;94964.03;;;21.26;56.02
9225;BME280;4647;48.072;11.616;2023-06-10T07:14:39;94979.38;;;21.07;56.84
9225;BME280;4647;48.072;11.616;2023-06-10T07:17:08;94991.09;;;21.54;55.83
9225;BME280;4647;48.072;11.616;2023-06-10T07:19:39;94995.16;;;21.58;54.97
9225;BME280;4647;48.072;11.616;2023-06-10T07:22:07;94987.38;;;21.57;55.15
9225;BME280;4647;48.072;11.616;2023-06-10T07:24:36;94993.56;;;21.52;55.65
9225;BME280;4647;48.072;11.616;2023-06-10T07:27:05;94999.28;;;21.74;54.69
9225;BME280;4647;48.072;11.616;2023-06-10T07:29:34;94986.03;;;22.10;54.03
9225;BME280;4647;48.072;11.616;2023-06-10T07:32:03;95013.66;;;22.21;52.80
9225;BME280;4647;48.072;11.616;2023-06-10T07:34:34;94982.88;;;21.96;53.68
9225;BME280;4647;48.072;11.616;2023-06-10T07:37:05;94992.72;;;22.03;53.74
9225;BME280;4647;48.072;11.616;2023-06-10T07:39:34;94989.91;;;21.97;53.92
9225;BME280;4647;48.072;11.616;2023-06-10T07:42:03;94962.78;;;21.90;53.59
9225;BME280;4647;48.072;11.616;2023-06-10T07:44:32;94995.28;;;22.49;52.41
9225;BME280;4647;48.072;11.616;2023-06-10T07:47:00;94996.66;;;22.28;52.34
9225;BME280;4647;48.072;11.616;2023-06-10T07:49:29;95000.81;;;22.55;51.85
9225;BME280;4647;48.072;11.616;2023-06-10T07:51:57;94964.00;;;22.80;50.21
9225;BME280;4647;48.072;11.616;2023-06-10T07:54:28;94982.59;;;22.74;50.81
9225;BME280;4647;48.072;11.616;2023-06-10T07:56:57;94988.72;;;23.06;50.00
9225;BME280;4647;48.072;11.616;2023-06-10T07:59:25;94986.50;;;23.38;49.77
9225;BME280;4647;48.072;11.616;2023-06-10T08:01:54;94997.50;;;22.99;51.02
9225;BME280;4647;48.072;11.616;2023-06-10T08:04:22;94994.06;;;23.26;50.04
9225;BME280;4647;48.072;11.616;2023-06-10T08:06:51;94982.94;;;23.04;50.24
9225;BME280;4647;48.072;11.616;2023-06-10T08:09:19;94975.31;;;22.77;51.11
9225;BME280;4647;48.072;11.616;2023-06-10T08:11:51;94990.31;;;22.70;51.50
9225;BME280;4647;48.072;11.616;2023-06-10T08:14:21;94997.94;;;21.95;53.83
9225;BME280;4647;48.072;11.616;2023-06-10T08:16:49;94987.28;;;22.57;51.62
9225;BME280;4647;48.072;11.616;2023-06-10T08:19:18;94990.78;;;23.34;50.13
9225;BME280;4647;48.072;11.616;2023-06-10T08:21:46;94985.28;;;24.01;48.38
9225;BME280;4647;48.072;11.616;2023-06-10T08:24:14;94991.09;;;23.86;46.13
9225;BME280;4647;48.072;11.616;2023-06-10T08:26:44;94981.25;;;24.13;45.61
9225;BME280;4647;48.072;11.616;2023-06-10T08:29:15;94990.28;;;24.36;45.76
9225;BME280;4647;48.072;11.616;2023-06-10T08:31:44;94967.69;;;23.87;46.29
9225;BME280;4647;48.072;11.616;2023-06-10T08:34:12;94996.56;;;23.30;47.97
9225;BME280;4647;48.072;11.616;2023-06-10T08:36:42;94984.03;;;23.46;48.53
9225;BME280;4647;48.072;11.616;2023-06-10T08:39:11;94995.56;;;23.22;48.84
9225;BME280;4647;48.072;11.616;2023-06-10T08:41:43;94996.16;;;22.78;49.52
9225;BME280;4647;48.072;11.616;2023-06-10T08:44:28;94969.47;;;22.58;48.95
9225;BME280;4647;48.072;11.616;2023-06-10T08:46:59;94994.75;;;23.16;48.27
9225;BME280;4647;48.072;11.616;2023-06-10T08:49:30;94992.28;;;23.35;48.02
9225;BME280;4647;48.072;11.616;2023-06-10T08:52:02;94996.44;;;22.85;49.08
9225;BME280;4647;48.072;11.616;2023-06-10T08:54:33;94998.81;;;23.20;48.40
9225;BME280;4647;48.072;11.616;2023-06-10T08:57:05;94988.31;;;23.58;47.31
9225;BME280;4647;48.072;11.616;2023-06-10T08:59:36;94994.09;;;24.16;45.83
9225;BME280;4647;48.072;11.616;2023-06-10T09:02:06;94989.59;;;23.79;46.43
9225;BME280;4647;48.072;11.616;2023-06-10T09:04:36;94986.28;;;23.47;45.86
9225;BME280;4647;48.072;11.616;2023-06-10T09:07:05;94986.31;;;23.64;46.11
9225;BME280;4647;48.072;11.616;2023-06-10T09:09:34;94969.38;;;23.17;46.49
9225;BME280;4647;48.072;11.616;2023-06-10T09:12:04;94975.16;;;23.14;47.46
9225;BME280;4647;48.072;11.616;2023-06-10T09:14:36;94992.25;;;23.12;46.03
9225;BME280;4647;48.072;11.616;2023-06-10T09:17:05;94984.25;;;23.37;46.49
9225;BME280;4647;48.072;11.616;2023-06-10T09:19:35;94990.81;;;24.12;45.44
9225;BME280;4647;48.072;11.616;2023-06-10T09:22:05;94985.56;;;23.92;45.28
9225;BME280;4647;48.072;11.616;2023-06-10T09:24:35;94983.28;;;24.07;45.08
9225;BME280;4647;48.072;11.616;2023-06-10T09:27:05;94981.50;;;23.37;45.96
9225;BME280;4647;48.072;11.616;2023-06-10T09:29:51;94975.47;;;23.55;45.60
9225;BME280;4647;48.072;11.616;2023-06-10T09:32:21;94972.44;;;23.42;45.59
9225;BME280;4647;48.072;11.616;2023-06-10T09:34:50;94986.00;;;23.34;46.25
9225;BME280;4647;48.072;11.616;2023-06-10T09:37:22;94978.47;;;23.35;45.65
9225;BME280;4647;48.072;11.616;2023-06-10T09:40:04;94983.50;;;24.20;45.00
9225;BME280;4647;48.072;11.616;2023-06-10T09:42:34;94979.00;;;24.17;45.38
9225;BME280;4647;48.072;11.616;2023-06-10T09:45:07;94985.50;;;24.42;45.97
9225;BME280;4647;48.072;11.616;2023-06-10T09:47:35;94991.81;;;23.47;47.27
9225;BME280;4647;48.072;11.616;2023-06-10T09:50:05;94972.94;;;23.23;48.50
9225;BME280;4647;48.072;11.616;2023-06-10T09:52:33;94988.47;;;23.15;49.22
9225;BME280;4647;48.072;11.616;2023-06-10T09:55:02;94990.22;;;23.02;48.84
9225;BME280;4647;48.072;11.616;2023-06-10T09:57:32;94989.50;;;23.12;48.36
9225;BME280;4647;48.072;11.616;2023-06-10T10:00:08;94986.09;;;22.75;48.97
9225;BME280;4647;48.072;11.616;2023-06-10T10:02:44;94996.56;;;22.54;49.58
9225;BME280;4647;48.072;11.616;2023-06-10T10:05:13;94996.13;;;22.72;49.40
9225;BME280;4647;48.072;11.616;2023-06-10T10:07:43;94988.53;;;23.21;48.52
9225;BME280;4647;48.072;11.616;2023-06-10T10:10:13;94987.81;;;23.87;46.67
9225;BME280;4647;48.072;11.616;2023-06-10T10:12:42;94985.56;;;23.80;46.54
9225;BME280;4647;48.072;11.616;2023-06-10T10:15:16;94992.59;;;23.65;46.88
9225;BME280;4647;48.072;11.616;2023-06-10T10:17:49;94999.91;;;23.68;47.05
9225;BME280;4647;48.072;11.616;2023-06-10T10:20:24;95010.41;;;24.47;45.43
9225;BME280;4647;48.072;11.616;2023-06-10T10:22:56;95000.28;;;24.67;43.41
9225;BME280;4647;48.072;11.616;2023-06-10T10:25:27;94995.28;;;24.54;44.38
9225;BME280;4647;48.072;11.616;2023-06-10T10:27:59;95000.84;;;24.48;42.72
9225;BME280;4647;48.072;11.616;2023-06-10T10:30:39;95000.31;;;24.50;44.22
9225;BME280;4647;48.072;11.616;2023-06-10T10:33:12;94994.75;;;24.56;43.63
9225;BME280;4647;48.072;11.616;2023-06-10T10:35:44;94993.94;;;24.77;42.77
9225;BME280;4647;48.072;11.616;2023-06-10T10:38:14;94995.84;;;25.11;43.13
9225;BME280;4647;48.072;11.616;2023-06-10T10:40:44;94996.03;;;26.19;40.71
9225;BME280;4647;48.072;11.616;2023-06-10T10:43:13;94994.13;;;26.39;39.56
9225;BME280;4647;48.072;11.616;2023-06-10T10:45:46;94991.66;;;25.34;42.21
9225;BME280;4647;48.072;11.616;2023-06-10T10:48:26;94973.19;;;24.21;43.72
9225;BME280;4647;48.072;11.616;2023-06-10T10:50:58;94986.59;;;25.38;42.30
9225;BME280;4647;48.072;11.616;2023-06-10T10:53:27;94990.28;;;25.05;42.68
9225;BME280;4647;48.072;11.616;2023-06-10T10:55:59;94979.66;;;24.51;43.52
9225;BME280;4647;48.072;11.616;2023-06-10T10:58:28;94970.66;;;24.23;44.48
9225;BME280;4647;48.072;11.616;2023-06-10T11:01:10;94985.06;;;23.65;45.25
9225;BME280;4647;48.072;11.616;2023-06-10T11:03:43;94967.97;;;23.78;45.03
9225;BME280;4647;48.072;11.616;2023-06-10T11:06:14;94987.56;;;24.02;45.12
9225;BME280;4647;48.072;11.616;2023-06-10T11:08:47;94987.19;;;24.56;43.65
9225;BME280;4647;48.072;11.616;2023-06-10T11:11:20;94989.72;;;24.65;42.94
9225;BME280;4647;48.072;11.616;2023-06-10T11:14:07;94965.50;;;25.24;41.66
9225;BME280;4647;48.072;11.616;2023-06-10T11:16:43;94988.47;;;25.54;40.58
9225;BME280;4647;48.072;11.616;2023-06-10T11:19:38;94975.56;;;25.62;40.33
9225;BME280;4647;48.072;11.616;2023-06-10T11:22:16;94989.72;;;25.59;40.65
9225;BME280;4647;48.072;11.616;2023-06-10T11:24:49;94996.91;;;26.09;39.47
9225;BME280;4647;48.072;11.616;2023-06-10T11:27:22;94976.03;;;26.26;39.01
9225;BME280;4647;48.072;11.616;2023-06-10T11:30:18;94986.91;;;26.24;38.64
9225;BME280;4647;48.072;11.616;2023-06-10T11:32:52;94982.75;;;26.12;38.21
9225;BME280;4647;48.072;11.616;2023-06-10T11:35:25;94975.06;;;25.64;39.28
9225;BME280;4647;48.072;11.616;2023-06-10T11:37:57;94982.56;;;25.75;38.95
9225;BME280;4647;48.072;11.616;2023-06-10T11:40:26;94977.22;;;25.77;39.05
9225;BME280;4647;48.072;11.616;2023-06-10T11:42:55;94967.72;;;25.96;38.40
9225;BME280;4647;48.072;11.616;2023-06-10T13:34:04;94942.28;;;24.80;43.63
9225;BME280;4647;48.072;11.616;2023-06-10T13:36:35;94928.19;;;24.78;43.17
9225;BME280;4647;48.072;11.616;2023-06-10T13:39:03;94932.50;;;25.20;42.77
9225;BME280;4647;48.072;11.616;2023-06-10T13:41:38;94936.91;;;25.40;41.71
9225;BME280;4647;48.072;11.616;2023-06-10T13:44:07;94934.41;;;25.66;41.65
9225;BME280;4647;48.072;11.616;2023-06-10T13:46:35;94933.84;;;25.44;41.57
9225;BME280;4647;48.072;11.616;2023-06-10T13:49:13;94929.16;;;25.63;40.47
9225;BME280;4647;48.072;11.616;2023-06-10T13:51:43;94928.69;;;25.23;41.50
9225;BME280;4647;48.072;11.616;2023-06-10T13:54:11;94934.03;;;25.16;41.10
9225;BME280;4647;48.072;11.616;2023-06-10T13:56:41;94928.19;;;25.25;40.72
9225;BME280;4647;48.072;11.616;2023-06-10T13:59:09;94934.94;;;25.29;39.52
9225;BME280;4647;48.072;11.616;2023-06-10T14:01:41;94937.38;;;25.08;40.20
9225;BME280;4647;48.072;11.616;2023-06-10T14:04:13;94898.59;;;24.97;39.86
9225;BME280;4647;48.072;11.616;2023-06-10T14:06:41;94924.28;;;25.03;39.75
9225;BME280;4647;48.072;11.616;2023-06-10T14:09:11;94938.34;;;24.64;39.89
9225;BME280;4647;48.072;11.616;2023-06-10T14:11:44;94937.66;;;24.99;39.48
9225;BME280;4647;48.072;11.616;2023-06-10T14:14:14;94943.97;;;24.94;39.81
9225;BME280;4647;48.072;11.616;2023-06-10T14:16:44;94943.59;;;25.20;38.67
9225;BME280;4647;48.072;11.616;2023-06-10T14:19:15;94942.50;;;24.82;39.20
9225;BME280;4647;48.072;11.616;2023-06-10T14:21:44;94938.22;;;24.87;39.83
9225;BME280;4647;48.072;11.616;2023-06-10T14:24:12;94946.88;;;25.19;38.86
9225;BME280;4647;48.072;11.616;2023-06-10T14:26:41;94916.38;;;24.72;40.64
9225;BME280;4647;48.072;11.616;2023-06-10T14:29:12;94935.91;;;24.96;40.18
9225;BME280;4647;48.072;11.616;2023-06-10T14:31:48;94926.50;;;24.64;41.48
9225;BME280;4647;48.072;11.616;2023-06-10T14:34:19;94941.78;;;24.76;41.63
9225;BME280;4647;48.072;11.616;2023-06-10T14:36:48;94928.34;;;25.38;40.14
9225;BME280;4647;48.072;11.616;2023-06-10T14:39:19;94929.44;;;25.59;39.56
9225;BME280;4647;48.072;11.616;2023-06-10T14:41:47;94943.25;;;25.35;40.58
9225;BME280;4647;48.072;11.616;2023-06-10T14:44:20;94928.56;;;25.04;40.52
9225;BME280;4647;48.072;11.616;2023-06-10T14:46:50;94944.75;;;25.66;38.77
9225;BME280;4647;48.072;11.616;2023-06-10T14:49:21;94933.59;;;25.77;38.44
9225;BME280;4647;48.072;11.616;2023-06-10T14:51:51;94940.91;;;25.45;38.61
9225;BME280;4647;48.072;11.616;2023-06-10T14:54:21;94943.66;;;25.45;38.15
9225;BME280;4647;48.072;11.616;2023-06-10T14:56:49;94928.97;;;25.55;38.11
9225;BME280;4647;48.072;11.616;2023-06-10T14:59:18;94929.97;;;25.58;37.40
9225;BME280;4647;48.072;11.616;2023-06-10T15:01:46;94918.41;;;26.08;36.63
9225;BME280;4647;48.072;11.616;2023-06-10T15:04:17;94920.72;;;26.72;36.23
9225;BME280;4647;48.072;11.616;2023-06-10T15:06:48;94924.72;;;27.14;34.94
9225;BME280;4647;48.072;11.616;2023-06-10T15:09:17;94924.56;;;27.57;34.79
9225;BME280;4647;48.072;11.616;2023-06-10T15:11:46;94926.81;;;27.59;35.93
9225;BME280;4647;48.072;11.616;2023-06-10T15:14:14;94932.53;;;27.15;37.97